Terminal Aerodrome Forecast
Issued by NWS

Home | Current Version | Previous Version | Text Only | Print | Product List | Glossary On
Versions: 1 2 3 4 5 6 7 8 9 10 11 12 13 14 15 16 17
928
FTUS43 KMQT 161136 AAA
TAFSAW
TAF AMD
KSAW 161136Z 1612/1712 02004KT P6SM -SHSN BKN035
     FM161500 11004KT P6SM -SHSN BKN035
     FM161700 12004KT P6SM VCSH BKN040
     FM161900 11003KT P6SM BKN070
     FM162200 11003KT P6SM BKN035
     FM162300 12004KT P6SM BKN025
     FM170400 16004KT P6SM BKN045
     FM170900 18003KT P6SM BKN015=

USA.gov is the U.S. government's official web portal to all federal, state and local government web resources and services.